Time;durP1;ratioP1;P1;durP2;ratioP2;P2;SDS_P1;SDS_P2;PMS_P1;PMS_P2;Temp;Humidity;BMP_temperature;BMP_pressure;BME280_temperature;BME280_humidity;BME280_pressure;Samples;Min_cycle;Max_cycle;Signal;HPM_P1;HPM_P2
2022/06/23 00:01:59;;;;;;;30.55;18.90;;;;;;;;;;5012295;28;20054;-57
2022/06/23 00:04:27;;;;;;;24.58;18.88;;;;;;;;;;5011994;28;20084;-57
2022/06/23 00:06:55;;;;;;;28.05;20.05;;;;;;;;;;5012600;28;20109;-57
2022/06/23 00:09:33;;;;;;;22.33;18.00;;;;;;;;;;5012128;28;20034;-57
2022/06/23 00:12:00;;;;;;;23.25;18.88;;;;;;;;;;5013269;28;20022;-56
2022/06/23 00:14:27;;;;;;;23.67;18.23;;;;;;;;;;5011659;28;20033;-56
2022/06/23 00:16:53;;;;;;;29.63;18.30;;;;;;;;;;5011569;28;20505;-55
2022/06/23 00:19:19;;;;;;;25.90;18.55;;;;;;;;;;5012811;28;20108;-57
2022/06/23 00:21:48;;;;;;;26.52;19.55;;;;;;;;;;5013315;28;20030;-55
2022/06/23 00:24:17;;;;;;;30.30;18.63;;;;;;;;;;5013458;28;20029;-55
2022/06/23 00:26:43;;;;;;;24.08;18.77;;;;;;;;;;5013204;28;20039;-55
2022/06/23 00:29:13;;;;;;;25.77;18.73;;;;;;;;;;5012901;28;20030;-58
2022/06/23 00:31:44;;;;;;;28.38;18.70;;;;;;;;;;5013603;28;20519;-54
2022/06/23 00:34:16;;;;;;;22.02;17.95;;;;;;;;;;5012427;28;20033;-56
2022/06/23 00:36:51;;;;;;;27.50;19.38;;;;;;;;;;5012162;28;20030;-54
2022/06/23 00:39:30;;;;;;;25.55;19.13;;;;;;;;;;5013113;28;20072;-57
2022/06/23 00:41:56;;;;;;;28.48;17.90;;;;;;;;;;5009644;28;20053;-55
2022/06/23 00:44:25;;;;;;;27.48;19.88;;;;;;;;;;5012882;28;20041;-55
2022/06/23 00:46:53;;;;;;;24.88;18.35;;;;;;;;;;5012792;28;20058;-56
2022/06/23 00:49:24;;;;;;;23.80;18.10;;;;;;;;;;5012302;28;20034;-56
2022/06/23 00:51:53;;;;;;;28.40;17.90;;;;;;;;;;5012550;28;20030;-55
2022/06/23 00:54:22;;;;;;;24.95;17.70;;;;;;;;;;5012904;28;20034;-54
2022/06/23 00:56:48;;;;;;;27.17;19.02;;;;;;;;;;5012648;28;20022;-57
2022/06/23 00:59:47;;;;;;;23.60;17.60;;;;;;;;;;5012142;28;20030;-54
2022/06/23 01:02:14;;;;;;;24.02;17.45;;;;;;;;;;4991544;28;20053;-54
2022/06/23 01:04:40;;;;;;;26.70;17.83;;;;;;;;;;5012149;28;20025;-54
2022/06/23 01:07:06;;;;;;;23.87;17.27;;;;;;;;;;5012645;28;20030;-58
2022/06/23 01:09:32;;;;;;;25.27;17.55;;;;;;;;;;5012789;28;20026;-57
2022/06/23 01:12:01;;;;;;;22.83;17.17;;;;;;;;;;5012300;28;20084;-58
2022/06/23 01:14:34;;;;;;;22.77;19.10;;;;;;;;;;5012243;28;20502;-58
2022/06/23 01:17:16;;;;;;;23.40;18.02;;;;;;;;;;5011766;28;20487;-58
2022/06/23 01:20:03;;;;;;;20.80;17.33;;;;;;;;;;5012273;28;20045;-56
2022/06/23 01:22:48;;;;;;;32.70;18.65;;;;;;;;;;5012440;28;20038;-56
2022/06/23 01:25:30;;;;;;;19.90;17.88;;;;;;;;;;5010875;28;20030;-57
2022/06/23 01:28:04;;;;;;;29.85;19.20;;;;;;;;;;5012048;28;20030;-57
2022/06/23 01:30:33;;;;;;;22.77;18.27;;;;;;;;;;5011540;28;20101;-56
2022/06/23 01:33:25;;;;;;;28.50;20.10;;;;;;;;;;5012164;28;20044;-56
2022/06/23 01:36:04;;;;;;;29.67;19.90;;;;;;;;;;5007423;28;20518;-55
2022/06/23 01:38:43;;;;;;;26.58;19.35;;;;;;;;;;5011413;28;20627;-54
2022/06/23 01:41:15;;;;;;;24.65;18.40;;;;;;;;;;5012047;28;20036;-56
2022/06/23 01:43:44;;;;;;;24.45;18.88;;;;;;;;;;5011940;28;20092;-57
2022/06/23 01:46:22;;;;;;;22.02;18.40;;;;;;;;;;5011338;28;20026;-57
2022/06/23 01:48:51;;;;;;;25.20;18.83;;;;;;;;;;5011444;28;20061;-55
2022/06/23 01:51:26;;;;;;;28.85;18.73;;;;;;;;;;5011189;28;20687;-57
2022/06/23 01:53:53;;;;;;;27.15;18.73;;;;;;;;;;5010715;28;20061;-56
2022/06/23 01:56:19;;;;;;;28.13;18.33;;;;;;;;;;5009999;28;20032;-56
2022/06/23 01:58:49;;;;;;;24.07;18.43;;;;;;;;;;5010231;28;20080;-56
2022/06/23 02:01:19;;;;;;;23.25;19.75;;;;;;;;;;5011490;28;20257;-57
2022/06/23 02:03:48;;;;;;;23.98;19.95;;;;;;;;;;5010606;28;20501;-56
2022/06/23 02:06:20;;;;;;;22.75;18.55;;;;;;;;;;5011309;28;20021;-55
2022/06/23 02:08:51;;;;;;;22.30;19.45;;;;;;;;;;5000777;28;20486;-57
2022/06/23 02:11:35;;;;;;;27.33;21.00;;;;;;;;;;5011274;28;20018;-57
2022/06/23 02:14:07;;;;;;;26.38;21.10;;;;;;;;;;5011354;28;20033;-59
2022/06/23 02:16:33;;;;;;;26.33;20.08;;;;;;;;;;5011451;28;20041;-57
2022/06/23 02:19:04;;;;;;;29.17;21.30;;;;;;;;;;5011627;28;20022;-56
2022/06/23 02:21:39;;;;;;;24.35;20.38;;;;;;;;;;5011600;28;20044;-57
2022/06/23 02:24:24;;;;;;;29.45;21.50;;;;;;;;;;5025573;22;20057;-63
2022/06/23 02:27:08;;;;;;;37.55;24.50;;;;;;;;;;5000502;28;20056;-63
2022/06/23 02:29:53;;;;;;;39.95;25.20;;;;;;;;;;5009516;28;20037;-63
2022/06/23 02:32:19;;;;;;;36.60;24.20;;;;;;;;;;5011615;28;20037;-63
2022/06/23 02:34:59;;;;;;;29.67;24.97;;;;;;;;;;5010327;28;20030;-63
2022/06/23 02:37:44;;;;;;;31.50;24.20;;;;;;;;;;5011589;28;20138;-63
2022/06/23 02:40:16;;;;;;;35.20;26.45;;;;;;;;;;5011666;28;20148;-63
2022/06/23 02:42:42;;;;;;;35.65;28.60;;;;;;;;;;5011417;28;20592;-62
2022/06/23 02:45:38;;;;;;;31.45;26.55;;;;;;;;;;5011254;28;20101;-62
2022/06/23 02:48:15;;;;;;;30.10;25.77;;;;;;;;;;5002711;28;20371;-63
2022/06/23 02:50:53;;;;;;;31.65;26.58;;;;;;;;;;5011218;28;20033;-63
2022/06/23 02:53:25;;;;;;;38.25;26.73;;;;;;;;;;5011346;28;20038;-63
2022/06/23 02:56:00;;;;;;;29.38;26.27;;;;;;;;;;5011240;28;20033;-63
2022/06/23 02:58:32;;;;;;;33.05;27.70;;;;;;;;;;5011965;28;20390;-63
2022/06/23 03:01:02;;;;;;;28.67;25.95;;;;;;;;;;5015183;28;20036;-63
2022/06/23 03:03:34;;;;;;;32.38;27.23;;;;;;;;;;5015201;28;20500;-63
2022/06/23 03:06:07;;;;;;;39.13;26.73;;;;;;;;;;5014545;28;20483;-63
2022/06/23 03:08:44;;;;;;;33.58;26.98;;;;;;;;;;5015161;28;20136;-63
2022/06/23 03:11:17;;;;;;;33.95;25.75;;;;;;;;;;5015467;28;20030;-63
2022/06/23 03:13:48;;;;;;;30.08;24.45;;;;;;;;;;5014384;28;20030;-63
2022/06/23 03:16:24;;;;;;;37.60;27.33;;;;;;;;;;5015185;28;20029;-63
2022/06/23 03:19:04;;;;;;;33.15;27.70;;;;;;;;;;5014879;28;20026;-63
2022/06/23 03:21:32;;;;;;;33.17;27.05;;;;;;;;;;5014165;28;20037;-63
2022/06/23 03:24:03;;;;;;;34.47;28.45;;;;;;;;;;5012460;28;20406;-63
2022/06/23 03:26:35;;;;;;;29.73;26.52;;;;;;;;;;5013163;28;20026;-63
2022/06/23 03:29:07;;;;;;;31.40;26.13;;;;;;;;;;5014285;28;20105;-63
2022/06/23 03:31:37;;;;;;;33.13;28.35;;;;;;;;;;5014706;28;20510;-63
2022/06/23 03:34:03;;;;;;;38.67;27.25;;;;;;;;;;5013891;28;20029;-63
2022/06/23 03:36:29;;;;;;;30.33;26.93;;;;;;;;;;5014376;28;20026;-63
2022/06/23 03:41:47;;;;;;;30.70;27.38;;;;;;;;;;4995123;28;20103;-63
2022/06/23 03:44:16;;;;;;;37.25;28.33;;;;;;;;;;5014298;28;20026;-63
2022/06/23 03:46:44;;;;;;;35.50;28.80;;;;;;;;;;5014303;28;20033;-63
2022/06/23 03:49:27;;;;;;;32.33;28.92;;;;;;;;;;5013965;28;20030;-63
2022/06/23 03:51:58;;;;;;;32.30;28.27;;;;;;;;;;5014443;28;20410;-63
2022/06/23 03:54:44;;;;;;;36.88;27.42;;;;;;;;;;5013804;28;20113;-63
2022/06/23 03:57:31;;;;;;;37.63;29.73;;;;;;;;;;5011954;28;20037;-63
2022/06/23 04:00:05;;;;;;;35.97;29.30;;;;;;;;;;5014480;28;20100;-63
2022/06/23 04:02:34;;;;;;;40.42;31.65;;;;;;;;;;5013901;28;20509;-63
2022/06/23 04:05:06;;;;;;;38.22;30.00;;;;;;;;;;5014266;28;20022;-63
2022/06/23 04:07:35;;;;;;;42.15;30.10;;;;;;;;;;5014080;28;20026;-63
2022/06/23 04:10:09;;;;;;;35.40;30.58;;;;;;;;;;5014156;28;20076;-63
2022/06/23 04:12:37;;;;;;;40.67;30.55;;;;;;;;;;5014191;28;20033;-63
2022/06/23 04:15:08;;;;;;;32.22;28.73;;;;;;;;;;5014164;28;20026;-63
2022/06/23 04:17:42;;;;;;;36.13;30.35;;;;;;;;;;5013941;28;20061;-63
2022/06/23 04:20:14;;;;;;;33.78;28.85;;;;;;;;;;5014098;28;20026;-63
2022/06/23 04:22:46;;;;;;;34.80;30.95;;;;;;;;;;5012515;28;20068;-63
2022/06/23 04:25:18;;;;;;;38.90;32.47;;;;;;;;;;5014021;28;20026;-63
2022/06/23 04:27:50;;;;;;;38.60;30.70;;;;;;;;;;5013775;28;20112;-63
2022/06/23 04:30:27;;;;;;;39.28;31.30;;;;;;;;;;5013875;28;20026;-63
2022/06/23 04:32:55;;;;;;;39.00;31.00;;;;;;;;;;5013963;28;20029;-63
2022/06/23 04:35:27;;;;;;;33.65;30.00;;;;;;;;;;5013755;28;20363;-63
2022/06/23 04:38:03;;;;;;;40.83;31.73;;;;;;;;;;5013587;28;20482;-63
2022/06/23 04:40:49;;;;;;;38.13;32.17;;;;;;;;;;5013741;28;20026;-63
2022/06/23 04:43:28;;;;;;;45.58;32.17;;;;;;;;;;5013394;28;20037;-63
2022/06/23 04:45:59;;;;;;;52.05;35.20;;;;;;;;;;5013758;28;20053;-63
2022/06/23 04:48:25;;;;;;;43.83;33.95;;;;;;;;;;5013438;28;20055;-63
2022/06/23 04:50:56;;;;;;;39.23;34.50;;;;;;;;;;5013492;28;20030;-63
2022/06/23 04:53:42;;;;;;;42.60;33.97;;;;;;;;;;5013558;28;20029;-63
2022/06/23 04:56:14;;;;;;;45.17;35.25;;;;;;;;;;5013258;28;20030;-63
2022/06/23 04:58:58;;;;;;;43.00;35.55;;;;;;;;;;5013210;28;20360;-63
2022/06/23 05:01:26;;;;;;;40.70;36.33;;;;;;;;;;5011944;28;20069;-63
2022/06/23 05:03:55;;;;;;;44.13;37.72;;;;;;;;;;5011781;28;20079;-63
2022/06/23 05:06:42;;;;;;;45.35;37.05;;;;;;;;;;5013168;28;20032;-63
2022/06/23 05:09:18;;;;;;;44.03;38.40;;;;;;;;;;5013099;28;20057;-62
2022/06/23 05:11:47;;;;;;;43.58;37.47;;;;;;;;;;5013079;28;20053;-48
2022/06/23 05:14:36;;;;;;;43.75;38.92;;;;;;;;;;5012895;28;20525;-52
2022/06/23 05:17:06;;;;;;;45.13;37.17;;;;;;;;;;4994084;28;20079;-49
2022/06/23 05:19:35;;;;;;;49.08;39.15;;;;;;;;;;5012914;28;20071;-51
2022/06/23 05:22:09;;;;;;;45.40;38.08;;;;;;;;;;5011101;28;20112;-48
2022/06/23 05:24:38;;;;;;;47.17;39.47;;;;;;;;;;5012868;28;20041;-51
2022/06/23 05:27:14;;;;;;;45.65;38.33;;;;;;;;;;5012779;28;20394;-48
2022/06/23 05:29:50;;;;;;;41.35;36.92;;;;;;;;;;5012930;28;20024;-48
2022/06/23 05:32:19;;;;;;;48.90;37.75;;;;;;;;;;5012715;28;20050;-48
2022/06/23 05:35:08;;;;;;;45.65;38.45;;;;;;;;;;5012927;28;20064;-48
2022/06/23 05:37:42;;;;;;;48.88;39.88;;;;;;;;;;5007291;28;20514;-47
2022/06/23 05:40:31;;;;;;;45.08;38.15;;;;;;;;;;5012266;28;20105;-49
2022/06/23 05:43:00;;;;;;;43.42;38.80;;;;;;;;;;5007204;28;20053;-54
2022/06/23 05:45:28;;;;;;;41.25;36.38;;;;;;;;;;5012593;28;20049;-48
2022/06/23 05:47:55;;;;;;;47.85;38.20;;;;;;;;;;5012494;28;20033;-48
2022/06/23 05:50:24;;;;;;;42.78;36.65;;;;;;;;;;5012625;28;20026;-49
2022/06/23 05:52:54;;;;;;;47.97;38.15;;;;;;;;;;5012403;28;20055;-51
2022/06/23 05:55:36;;;;;;;49.30;39.35;;;;;;;;;;5012449;28;20022;-47
2022/06/23 05:58:06;;;;;;;46.35;37.75;;;;;;;;;;5012299;28;20052;-48
2022/06/23 06:00:32;;;;;;;44.58;37.42;;;;;;;;;;5011818;28;20021;-49
2022/06/23 06:03:04;;;;;;;47.87;38.87;;;;;;;;;;5012243;28;20044;-49
2022/06/23 06:05:34;;;;;;;44.25;39.10;;;;;;;;;;5011653;28;20252;-49
2022/06/23 06:08:01;;;;;;;44.15;37.70;;;;;;;;;;5012172;28;20060;-53
2022/06/23 06:10:29;;;;;;;47.35;38.97;;;;;;;;;;5012323;28;20109;-48
2022/06/23 06:12:56;;;;;;;46.67;38.47;;;;;;;;;;5011034;28;20113;-49
2022/06/23 06:15:22;;;;;;;;;;;;;;;;;;4993840;28;20101;-48
2022/06/23 06:17:49;;;;;;;46.15;35.47;;;;;;;;;;5002089;28;20058;-48
2022/06/23 06:20:16;;;;;;;43.97;37.55;;;;;;;;;;5011934;28;20025;-48
2022/06/23 06:22:48;;;;;;;43.38;35.80;;;;;;;;;;5011717;28;20034;-48
2022/06/23 06:25:43;;;;;;;41.55;36.97;;;;;;;;;;5012002;28;20025;-48
2022/06/23 06:28:16;;;;;;;39.40;34.00;;;;;;;;;;5002882;28;20063;-48
2022/06/23 06:30:46;;;;;;;41.58;34.35;;;;;;;;;;5011279;28;20022;-49
2022/06/23 06:33:24;;;;;;;38.50;32.53;;;;;;;;;;5012054;28;20124;-49
2022/06/23 06:35:55;;;;;;;39.17;35.08;;;;;;;;;;5015588;28;20026;-49
2022/06/23 06:38:21;;;;;;;40.80;35.00;;;;;;;;;;5015516;28;20030;-49
2022/06/23 06:40:49;;;;;;;40.42;34.45;;;;;;;;;;5014202;28;20056;-49
2022/06/23 06:43:29;;;;;;;42.13;34.28;;;;;;;;;;5014364;28;20022;-52
2022/06/23 06:45:55;;;;;;;35.13;31.38;;;;;;;;;;5015719;28;20029;-48
2022/06/23 06:48:21;;;;;;;35.95;31.77;;;;;;;;;;5015010;28;20026;-48
2022/06/23 06:50:50;;;;;;;37.67;31.40;;;;;;;;;;5015464;28;20028;-49
2022/06/23 06:53:18;;;;;;;37.50;29.40;;;;;;;;;;5014489;28;20026;-47
2022/06/23 06:55:47;;;;;;;37.10;29.65;;;;;;;;;;5014867;28;20385;-47
2022/06/23 06:58:19;;;;;;;46.83;41.72;;;;;;;;;;5015070;28;20034;-51
2022/06/23 07:00:54;;;;;;;37.83;31.88;;;;;;;;;;5015164;28;20030;-48
2022/06/23 07:03:23;;;;;;;35.58;30.15;;;;;;;;;;5015461;28;20038;-47
2022/06/23 07:06:10;;;;;;;34.63;30.88;;;;;;;;;;5015598;28;20051;-52
2022/06/23 07:08:54;;;;;;;41.77;32.60;;;;;;;;;;5015407;28;20502;-48
2022/06/23 07:11:39;;;;;;;33.33;27.48;;;;;;;;;;5015501;28;20026;-48
2022/06/23 07:14:12;;;;;;;33.92;30.48;;;;;;;;;;5013268;28;20030;-48
2022/06/23 07:16:41;;;;;;;37.78;29.45;;;;;;;;;;5014858;28;20071;-48
2022/06/23 07:19:14;;;;;;;35.30;28.00;;;;;;;;;;5013841;28;20022;-52
2022/06/23 07:21:49;;;;;;;36.20;26.33;;;;;;;;;;5015027;28;20026;-49
2022/06/23 07:24:18;;;;;;;42.67;28.05;;;;;;;;;;5014597;28;20076;-48
2022/06/23 07:26:46;;;;;;;30.92;25.52;;;;;;;;;;5015208;28;20030;-48
2022/06/23 07:29:12;;;;;;;34.97;23.70;;;;;;;;;;5013689;28;20026;-48
2022/06/23 07:31:46;;;;;;;29.25;24.58;;;;;;;;;;5015029;28;20034;-48
2022/06/23 07:34:13;;;;;;;27.23;22.17;;;;;;;;;;5015126;28;20052;-48
2022/06/23 07:36:43;;;;;;;35.03;23.13;;;;;;;;;;5015052;28;20029;-50
2022/06/23 07:39:12;;;;;;;34.03;23.35;;;;;;;;;;5014839;28;20445;-48
2022/06/23 07:41:44;;;;;;;26.73;20.27;;;;;;;;;;5014883;28;20037;-48
2022/06/23 07:44:14;;;;;;;31.77;21.65;;;;;;;;;;5014455;28;20034;-48
2022/06/23 07:46:40;;;;;;;29.58;21.80;;;;;;;;;;5014762;28;20026;-48
2022/06/23 07:49:07;;;;;;;25.80;19.77;;;;;;;;;;5014631;28;20026;-48
2022/06/23 07:51:33;;;;;;;;;;;;;;;;;;5014640;28;20057;-48
2022/06/23 07:53:59;;;;;;;28.15;20.33;;;;;;;;;;5014795;28;20337;-49
2022/06/23 07:56:27;;;;;;;30.73;19.35;;;;;;;;;;5014819;28;20108;-48
2022/06/23 07:58:55;;;;;;;28.75;20.08;;;;;;;;;;5014345;28;20029;-48
2022/06/23 08:01:21;;;;;;;26.90;17.38;;;;;;;;;;5014506;28;20064;-66
2022/06/23 08:03:57;;;;;;;22.88;17.50;;;;;;;;;;5012371;28;20049;-66
2022/06/23 08:06:24;;;;;;;29.92;18.73;;;;;;;;;;5013171;28;20029;-66
2022/06/23 08:08:54;;;;;;;32.90;20.30;;;;;;;;;;5014142;28;20552;-66
2022/06/23 08:14:17;;;;;;;29.83;17.33;;;;;;;;;;5014466;28;20037;-66
2022/06/23 08:16:49;;;;;;;;;;;;;;;;;;5013393;28;20026;-66
2022/06/23 08:19:15;;;;;;;29.10;18.80;;;;;;;;;;5014023;28;19931;-66
2022/06/23 08:21:44;;;;;;;26.15;17.90;;;;;;;;;;5014302;28;20105;-66
2022/06/23 08:24:12;;;;;;;29.75;20.38;;;;;;;;;;5013085;28;20048;-66
2022/06/23 08:26:39;;;;;;;30.60;18.65;;;;;;;;;;5013992;28;20482;-66
2022/06/23 08:29:09;;;;;;;28.95;17.98;;;;;;;;;;5014120;28;20387;-66
2022/06/23 08:31:35;;;;;;;24.17;17.70;;;;;;;;;;5013900;28;20030;-66
2022/06/23 08:34:02;;;;;;;25.50;16.23;;;;;;;;;;5012587;28;20610;-66
2022/06/23 08:36:39;;;;;;;21.23;14.90;;;;;;;;;;5013712;28;20479;-66
2022/06/23 08:39:09;;;;;;;23.17;13.63;;;;;;;;;;5013564;28;20076;-66
2022/06/23 08:41:44;;;;;;;28.17;15.23;;;;;;;;;;5013686;28;20057;-66
2022/06/23 08:44:22;;;;;;;28.38;16.70;;;;;;;;;;5013526;28;20105;-66
2022/06/23 08:46:54;;;;;;;20.95;16.13;;;;;;;;;;5013527;28;20025;-66
2022/06/23 08:49:23;;;;;;;19.52;14.05;;;;;;;;;;5013324;28;20125;-66
2022/06/23 08:51:59;;;;;;;29.48;15.82;;;;;;;;;;5013627;28;20394;-66
2022/06/23 08:54:31;;;;;;;20.92;13.60;;;;;;;;;;5013366;28;20060;-66
2022/06/23 08:57:08;;;;;;;22.73;14.65;;;;;;;;;;5012559;28;20024;-66
2022/06/23 08:59:47;;;;;;;25.08;12.63;;;;;;;;;;5012124;28;20029;-66
2022/06/23 09:02:13;;;;;;;20.48;12.48;;;;;;;;;;5013306;28;20068;-66
2022/06/23 09:04:45;;;;;;;25.17;13.38;;;;;;;;;;5013298;28;20415;-66
2022/06/23 09:07:18;;;;;;;28.27;12.15;;;;;;;;;;5012963;28;20026;-66
2022/06/23 09:10:02;;;;;;;24.55;12.52;;;;;;;;;;5013210;28;20033;-66
2022/06/23 09:12:37;;;;;;;24.63;12.65;;;;;;;;;;5013018;28;20402;-66
2022/06/23 09:15:22;;;;;;;31.15;13.52;;;;;;;;;;5013189;28;20376;-66
2022/06/23 09:17:51;;;;;;;23.90;10.20;;;;;;;;;;5012947;28;20030;-66
2022/06/23 09:20:35;;;;;;;27.08;12.18;;;;;;;;;;5012947;28;20497;-66
2022/06/23 09:23:03;;;;;;;26.35;12.68;;;;;;;;;;5012728;28;20057;-66
2022/06/23 09:25:48;;;;;;;31.67;14.75;;;;;;;;;;5012874;28;20025;-66
2022/06/23 09:28:20;;;;;;;27.55;13.48;;;;;;;;;;5012689;28;20052;-66
2022/06/23 09:31:04;;;;;;;26.48;11.07;;;;;;;;;;5012771;28;20061;-66
2022/06/23 09:33:33;;;;;;;20.38;9.95;;;;;;;;;;5012686;28;20394;-66
2022/06/23 09:36:09;;;;;;;27.75;11.48;;;;;;;;;;5012910;28;20368;-66
2022/06/23 09:38:54;;;;;;;27.08;10.05;;;;;;;;;;5012610;28;20025;-66
2022/06/23 09:41:43;;;;;;;24.80;10.05;;;;;;;;;;5012614;28;20025;-66
2022/06/23 09:44:31;;;;;;;21.02;9.80;;;;;;;;;;4993534;28;20045;-66
2022/06/23 09:47:19;;;;;;;23.95;10.77;;;;;;;;;;5012486;28;20052;-66
2022/06/23 09:50:03;;;;;;;27.65;10.15;;;29.70;55.90;;;;;;5012349;28;20022;-50
2022/06/23 09:52:32;;;;;;;27.80;10.43;;;29.70;56.90;;;;;;5012675;28;20030;-49
2022/06/23 09:55:12;;;;;;;22.17;9.32;;;29.60;56.80;;;;;;5011140;28;20034;-51
2022/06/23 09:58:10;;;;;;;22.88;10.98;;;29.60;57.00;;;;;;5012208;28;20625;-50
2022/06/23 10:00:42;;;;;;;28.13;8.82;;;29.60;58.00;;;;;;5012435;28;20022;-50
2022/06/23 10:03:15;;;;;;;27.08;10.75;;;29.80;57.20;;;;;;5012242;28;20614;-50
2022/06/23 10:06:12;;;;;;;23.98;10.13;;;30.00;55.80;;;;;;5011871;28;20552;-47
2022/06/23 10:08:40;;;;;;;27.27;10.65;;;30.00;55.60;;;;;;5010501;28;20040;-49
2022/06/23 10:11:34;;;;;;;21.80;11.65;;;30.00;55.70;;;;;;5012116;28;20030;-48
2022/06/23 10:14:30;;;;;;;28.85;10.80;;;30.10;55.50;;;;;;5012188;28;20497;-48
2022/06/23 10:17:19;;;;;;;28.35;11.38;;;30.00;56.60;;;;;;5012209;28;20026;-48
2022/06/23 10:19:59;;;;;;;30.73;11.98;;;30.00;56.00;;;;;;5009857;28;20029;-47
2022/06/23 10:22:46;;;;;;;22.75;11.48;;;30.10;56.60;;;;;;5010797;28;20037;-48
2022/06/23 10:25:15;;;;;;;19.65;9.38;;;30.10;56.30;;;;;;5010702;28;20036;-46
2022/06/23 10:28:11;;;;;;;23.02;9.90;;;30.10;55.80;;;;;;5011116;28;20022;-48
2022/06/23 10:30:51;;;;;;;326.15;254.15;;;30.20;54.90;;;;;;5009676;28;20033;-55
2022/06/23 10:33:58;;;;;;;36.92;22.35;;;30.30;55.10;;;;;;5003953;28;20030;-55
2022/06/23 10:36:55;;;;;;;29.60;9.65;;;30.50;55.10;;;;;;5010687;28;20025;-52
2022/06/23 10:39:39;;;;;;;24.65;9.30;;;30.60;52.90;;;;;;5007093;28;20044;-50
2022/06/23 10:42:19;;;;;;;26.88;9.73;;;30.60;52.10;;;;;;5009872;28;20018;-52
2022/06/23 10:45:13;;;;;;;35.58;10.75;;;30.70;52.60;;;;;;5008140;28;20014;-50
2022/06/23 10:47:48;;;;;;;24.45;10.30;;;30.80;53.30;;;;;;4992075;28;20073;-52
2022/06/23 10:50:32;;;;;;;23.67;10.65;;;30.80;53.30;;;;;;5005509;28;20076;-49
2022/06/23 10:53:08;;;;;;;24.35;8.63;;;30.80;53.70;;;;;;5012025;28;20030;-50
2022/06/23 10:55:50;;;;;;;34.28;10.07;;;30.80;50.30;;;;;;5010904;28;20425;-50
2022/06/23 10:58:50;;;;;;;27.63;8.18;;;30.90;51.30;;;;;;4995146;28;20494;-53
2022/06/23 11:01:49;;;;;;;22.55;9.20;;;31.20;51.10;;;;;;5009274;28;20518;-50
2022/06/23 11:04:46;;;;;;;27.45;10.13;;;31.40;50.40;;;;;;5003200;28;20415;-50
2022/06/23 11:07:14;;;;;;;25.35;9.27;;;31.40;50.50;;;;;;4996592;28;20084;-50
2022/06/23 11:10:12;;;;;;;26.73;9.30;;;31.60;50.60;;;;;;4991951;28;20390;-50
2022/06/23 11:13:04;;;;;;;26.05;8.63;;;31.60;50.40;;;;;;5006723;28;20273;-50
2022/06/23 11:15:53;;;;;;;26.25;8.90;;;31.80;50.80;;;;;;4995317;28;20038;-51
2022/06/23 11:18:35;;;;;;;30.83;9.75;;;32.00;49.90;;;;;;4980895;28;20088;-51
2022/06/23 11:21:31;;;;;;;18.88;9.00;;;32.10;50.40;;;;;;5002629;28;20010;-51
2022/06/23 11:24:04;;;;;;;29.83;9.70;;;32.20;49.20;;;;;;5014921;28;20405;-50
2022/06/23 11:27:01;;;;;;;26.67;9.38;;;32.20;49.50;;;;;;5003182;28;20022;-50
2022/06/23 11:29:51;;;;;;;24.17;9.90;;;32.20;49.20;;;;;;5014714;28;20076;-50
2022/06/23 11:32:46;;;;;;;31.65;10.43;;;32.00;49.20;;;;;;5014940;28;20040;-50
2022/06/23 11:35:37;;;;;;;22.88;9.45;;;31.90;49.40;;;;;;5014922;28;20030;-53
2022/06/23 11:38:28;;;;;;;26.30;10.55;;;31.60;49.70;;;;;;5014774;28;20057;-51
2022/06/23 11:41:08;;;;;;;24.25;9.65;;;31.50;50.20;;;;;;5008561;28;20527;-51
2022/06/23 11:43:55;;;;;;;37.83;10.73;;;31.50;49.00;;;;;;5014698;28;20091;-52
2022/06/23 11:46:27;;;;;;;25.10;8.32;;;31.60;50.10;;;;;;5013321;28;20391;-50
2022/06/23 11:49:11;;;;;;;34.10;9.45;;;31.70;51.10;;;;;;5014700;28;20018;-51
2022/06/23 11:51:56;;;;;;;24.42;8.70;;;31.70;50.30;;;;;;5014431;28;20037;-50
2022/06/23 11:54:59;;;;;;;25.52;8.98;;;31.70;50.20;;;;;;5014305;28;20083;-51
2022/06/23 11:57:33;;;;;;;27.92;10.07;;;31.50;50.30;;;;;;5008483;28;20096;-50
2022/06/23 12:00:16;;;;;;;28.63;8.50;;;31.40;50.80;;;;;;5013056;28;20025;-51
2022/06/23 12:03:11;;;;;;;23.90;8.60;;;31.30;51.20;;;;;;5014508;28;20026;-50
2022/06/23 12:05:47;;;;;;;44.50;9.75;;;31.20;51.80;;;;;;5014376;28;20029;-50
2022/06/23 12:08:44;;;;;;;24.95;8.90;;;31.10;52.00;;;;;;5012753;28;20566;-50
2022/06/23 12:11:10;;;;;;;27.10;8.47;;;31.00;51.00;;;;;;5014242;28;20038;-50
2022/06/23 12:13:37;;;;;;;33.60;10.17;;;31.00;51.80;;;;;;5014249;28;20097;-51
2022/06/23 12:16:03;;;;;;;29.77;9.30;;;30.90;52.60;;;;;;5012764;28;20268;-50
2022/06/23 12:18:36;;;;;;;33.28;9.68;;;30.80;53.90;;;;;;5013901;28;20030;-50
2022/06/23 12:21:13;;;;;;;33.40;10.18;;;30.80;55.10;;;;;;5013845;28;20026;-50
2022/06/23 12:23:49;;;;;;;30.27;10.25;;;30.70;55.50;;;;;;5013709;28;20061;-52
2022/06/23 12:26:27;;;;;;;26.63;9.03;;;30.60;54.20;;;;;;5013961;28;20506;-50
2022/06/23 12:29:23;;;;;;;33.92;11.75;;;30.50;54.50;;;;;;5013733;28;20026;-54
2022/06/23 12:32:26;;;;;;;25.30;9.40;;;30.40;57.10;;;;;;4993163;28;20446;-50
2022/06/23 12:34:56;;;;;;;32.60;10.55;;;30.40;58.40;;;;;;4973251;28;20073;-52
2022/06/23 12:37:43;;;;;;;32.78;10.25;;;30.30;58.60;;;;;;5010894;28;20120;-55
2022/06/23 12:40:40;;;;;;;27.65;9.68;;;30.40;60.20;;;;;;5012601;28;20627;-52
2022/06/23 12:43:28;;;;;;;25.92;10.48;;;30.40;58.50;;;;;;5012423;28;20124;-50
2022/06/23 12:46:10;;;;;;;28.65;10.77;;;30.30;61.60;;;;;;5013314;28;20026;-50
2022/06/23 12:48:45;;;;;;;29.42;10.73;;;30.30;62.30;;;;;;5013277;28;20410;-50
2022/06/23 12:51:48;;;;;;;26.92;10.85;;;30.20;62.70;;;;;;5011886;28;20034;-51
2022/06/23 12:54:52;;;;;;;25.83;10.60;;;30.20;63.20;;;;;;4993929;28;20062;-49
2022/06/23 12:57:46;;;;;;;28.45;9.95;;;30.20;61.70;;;;;;4993342;28;20444;-50
2022/06/23 13:00:26;;;;;;;26.40;11.05;;;30.10;60.90;;;;;;5003095;28;20026;-49
2022/06/23 13:02:58;;;;;;;24.63;8.38;;;30.30;62.00;;;;;;5012977;28;20398;-49
2022/06/23 13:05:30;;;;;;;25.65;10.38;;;30.30;58.50;;;;;;5012284;28;20037;-50
2022/06/23 13:08:00;;;;;;;24.48;10.00;;;30.40;58.00;;;;;;5012575;28;20026;-49
2022/06/23 13:10:38;;;;;;;23.30;9.05;;;30.60;57.30;;;;;;5013032;28;20048;-49
2022/06/23 13:13:11;;;;;;;30.90;9.95;;;30.90;54.70;;;;;;5012630;28;20041;-49
2022/06/23 13:16:00;;;;;;;30.23;8.93;;;31.30;55.50;;;;;;5013081;28;20026;-53
2022/06/23 13:18:29;;;;;;;25.27;8.25;;;31.80;54.40;;;;;;5012898;28;20022;-49
2022/06/23 13:21:00;;;;;;;25.02;8.50;;;32.00;54.30;;;;;;5011185;28;20033;-48
2022/06/23 13:23:44;;;;;;;29.73;9.50;;;32.20;54.50;;;;;;5012248;28;20170;-53
2022/06/23 13:26:50;;;;;;;28.42;8.77;;;32.30;54.30;;;;;;5011668;28;20018;-49
2022/06/23 13:29:26;;;;;;;24.08;7.80;;;32.90;52.30;;;;;;4987514;28;20038;-51
2022/06/23 13:32:40;;;;;;;33.85;10.02;;;33.30;50.90;;;;;;4999945;28;20026;-50
2022/06/23 13:35:27;;;;;;;23.75;7.88;;;33.80;51.10;;;;;;4975417;28;20082;-50
2022/06/23 13:38:10;;;;;;;;;;;34.90;49.00;;;;;;5011927;28;20084;-50
2022/06/23 13:40:50;;;;;;;30.95;9.38;;;35.40;49.00;;;;;;5009837;28;19909;-51
2022/06/23 13:43:27;;;;;;;23.08;7.85;;;36.40;46.60;;;;;;5010530;28;20110;-55
2022/06/23 13:46:11;;;;;;;23.40;6.07;;;37.40;43.10;;;;;;5011850;28;20037;-51
2022/06/23 13:48:58;;;;;;;28.48;7.15;;;38.30;40.90;;;;;;5012061;28;20112;-52
2022/06/23 13:51:24;;;;;;;24.05;6.03;;;39.30;40.00;;;;;;5012019;28;20026;-52
2022/06/23 13:53:53;;;;;;;;;;;40.20;37.30;;;;;;5012393;28;20044;-52
2022/06/23 13:56:43;;;;;;;22.00;7.18;;;40.10;37.40;;;;;;5010968;28;19928;-54
2022/06/23 13:59:35;;;;;;;24.95;7.15;;;40.30;36.50;;;;;;5011727;28;20410;-51
2022/06/23 14:02:49;;;;;;;27.38;6.22;;;39.60;36.50;;;;;;5010644;28;20087;-50
2022/06/23 14:05:46;;;;;;;26.65;6.68;;;38.30;37.30;;;;;;5001114;28;20037;-53
2022/06/23 14:08:24;;;;;;;;;;;37.60;40.80;;;;;;5012643;28;20168;-53
2022/06/23 14:10:56;;;;;;;22.65;6.82;;;38.40;39.30;;;;;;5011774;28;19916;-51
2022/06/23 14:13:34;;;;;;;24.13;6.60;;;39.20;36.80;;;;;;5009976;28;20112;-54
2022/06/23 14:15:59;;;;;;;24.00;6.65;;;39.90;36.40;;;;;;4998666;28;20036;-50
2022/06/23 14:18:44;;;;;;;;;;;40.20;35.60;;;;;;5011604;28;20108;-53
2022/06/23 14:21:27;;;;;;;20.33;6.38;;;40.30;36.10;;;;;;5010657;28;19913;-52
2022/06/23 14:24:34;;;;;;;25.42;6.25;;;41.50;34.50;;;;;;5011673;28;20036;-52
2022/06/23 14:27:34;;;;;;;21.23;6.18;;;42.50;33.40;;;;;;4998078;28;20414;-51
2022/06/23 14:30:38;;;;;;;24.52;7.72;;;43.40;31.20;;;;;;5009291;28;20026;-51
2022/06/23 14:33:10;;;;;;;26.02;7.22;;;43.90;32.20;;;;;;4999376;28;20030;-50
2022/06/23 14:35:53;;;;;;;20.48;5.72;;;44.90;29.70;;;;;;5004126;28;20041;-53
2022/06/23 14:38:41;;;;;;;25.30;6.45;;;45.10;29.00;;;;;;5011792;28;20029;-54
2022/06/23 14:41:22;;;;;;;21.52;6.40;;;45.00;30.00;;;;;;5011886;28;20034;-52